createdAt,value
2018-09-06T00:01:58.468Z,56044.98
2018-09-06T00:04:27.576Z,56102.56
2018-09-06T00:06:56.686Z,56090.22
2018-09-06T00:09:25.795Z,56060.40
2018-09-06T00:11:54.904Z,56067.60
2018-09-06T00:14:24.034Z,56076.85
2018-09-06T00:16:53.173Z,56083.02
2018-09-06T00:19:22.352Z,56099.47
2018-09-06T00:21:51.525Z,56074.80
2018-09-06T00:24:20.673Z,56079.94
2018-09-06T00:26:49.837Z,56053.20
2018-09-06T00:29:18.979Z,56086.11
2018-09-06T00:31:48.047Z,56088.16
2018-09-06T00:34:17.138Z,56069.65
2018-09-06T00:36:46.370Z,56074.80
2018-09-06T00:39:15.693Z,56063.48
2018-09-06T00:41:44.784Z,56087.14
2018-09-06T00:44:13.926Z,56092.28
2018-09-06T00:46:43.121Z,56076.85
2018-09-06T00:49:12.270Z,56089.19
2018-09-06T00:51:41.394Z,56120.04
2018-09-06T00:54:10.525Z,56089.19
2018-09-06T00:56:39.680Z,56100.50
2018-09-06T00:59:08.852Z,56089.19
2018-09-06T01:01:44.249Z,56106.67
2018-09-06T01:04:13.426Z,56082.00
2018-09-06T01:06:42.603Z,56096.39
2018-09-06T01:09:11.744Z,56088.16
2018-09-06T01:11:40.886Z,56111.81
2018-09-06T01:14:10.043Z,56083.02
2018-09-06T01:16:39.155Z,56077.88
2018-09-06T01:19:08.363Z,56086.11
2018-09-06T01:21:37.475Z,56076.85
2018-09-06T01:24:07.099Z,56091.25
2018-09-06T01:26:36.242Z,56079.94
2018-09-06T01:29:05.388Z,56098.45
2018-09-06T01:31:34.538Z,56073.77
2018-09-06T01:34:03.634Z,56075.82
2018-09-06T01:36:38.123Z,56112.84
2018-09-06T01:39:10.137Z,56101.53
2018-09-06T01:41:39.233Z,56097.42
2018-09-06T01:44:08.313Z,56101.53
2018-09-06T01:46:38.408Z,56070.68
2018-09-06T01:49:08.354Z,56095.36
2018-09-06T01:51:37.559Z,56092.28
2018-09-06T01:54:06.659Z,56087.14
2018-09-06T01:56:35.814Z,56090.22
2018-09-06T01:59:05.023Z,56071.71
2018-09-06T02:01:34.171Z,56092.28
2018-09-06T02:04:03.280Z,56071.71
2018-09-06T02:06:32.381Z,56095.36
2018-09-06T02:09:01.512Z,56116.95
2018-09-06T02:11:30.607Z,56092.28
2018-09-06T02:13:59.688Z,56088.16
2018-09-06T02:16:28.834Z,56075.82
2018-09-06T02:18:57.955Z,56086.11
2018-09-06T02:21:27.107Z,56107.70
2018-09-06T02:23:56.308Z,56093.30
2018-09-06T02:26:25.398Z,56106.67
2018-09-06T02:28:54.540Z,56058.34
2018-09-06T02:31:23.682Z,56101.53
2018-09-06T02:33:52.906Z,56123.12
2018-09-06T02:36:22.061Z,56110.79
2018-09-06T02:38:51.274Z,56093.30
2018-09-06T02:41:20.447Z,56092.28
2018-09-06T02:43:49.574Z,56084.05
2018-09-06T02:46:18.763Z,56123.12
2018-09-06T02:48:47.887Z,56098.45
2018-09-06T02:51:19.306Z,56124.15
2018-09-06T02:53:48.475Z,56130.32
2018-09-06T02:56:18.276Z,56120.04
2018-09-06T02:58:47.482Z,56145.75
2018-09-06T03:01:16.633Z,56097.42
2018-09-06T03:03:45.750Z,56106.67
2018-09-06T03:06:14.928Z,56140.61
2018-09-06T03:08:43.981Z,56120.04
2018-09-06T03:11:18.292Z,56121.07
2018-09-06T03:13:47.476Z,56136.49
2018-09-06T03:16:16.685Z,56141.63
2018-09-06T03:18:45.808Z,56108.73
2018-09-06T03:21:14.980Z,56116.95
2018-09-06T03:23:44.229Z,56073.77
2018-09-06T03:26:20.212Z,56166.31
2018-09-06T03:28:51.034Z,56128.27
2018-09-06T03:31:20.136Z,56123.12
2018-09-06T03:33:49.227Z,56153.97
2018-09-06T03:36:18.374Z,56131.35
2018-09-06T03:38:47.468Z,56133.41
2018-09-06T03:41:16.573Z,56161.17
2018-09-06T03:43:45.726Z,56153.97
2018-09-06T03:46:14.854Z,56146.77
2018-09-06T03:48:43.980Z,56131.35
2018-09-06T03:51:13.156Z,56142.66
2018-09-06T03:53:42.321Z,56123.12
2018-09-06T03:56:11.460Z,56117.98
2018-09-06T03:58:40.618Z,56141.63
2018-09-06T04:01:09.791Z,56110.79
2018-09-06T04:03:38.974Z,56121.07
2018-09-06T04:06:08.093Z,56171.45
2018-09-06T04:08:37.229Z,56168.37
2018-09-06T04:11:06.435Z,56139.57
2018-09-06T04:13:35.581Z,56160.14
2018-09-06T04:16:04.720Z,56179.68
2018-09-06T04:18:33.931Z,56129.29
2018-09-06T04:21:03.131Z,56148.83
2018-09-06T04:23:32.361Z,56168.37
2018-09-06T04:26:01.587Z,56178.65
2018-09-06T04:28:30.708Z,56137.52
2018-09-06T04:30:59.895Z,56113.87
2018-09-06T04:33:29.059Z,56161.17
2018-09-06T04:35:58.203Z,56157.05
2018-09-06T04:38:27.346Z,56178.65
2018-09-06T04:40:56.504Z,56147.80
2018-09-06T04:43:25.677Z,56144.71
2018-09-06T04:45:54.847Z,56144.71
2018-09-06T04:48:23.976Z,56140.61
2018-09-06T04:50:53.123Z,56111.81
2018-09-06T04:53:22.311Z,56142.66
2018-09-06T04:55:51.603Z,56138.55
2018-09-06T04:58:20.791Z,56141.63
2018-09-06T05:00:49.933Z,56142.66
2018-09-06T05:03:28.717Z,56162.20
2018-09-06T05:05:57.865Z,56180.71
2018-09-06T05:08:34.302Z,56167.34
2018-09-06T05:11:03.604Z,56108.73
2018-09-06T05:13:32.775Z,56153.97
2018-09-06T05:16:01.944Z,56141.63
2018-09-06T05:18:31.106Z,56148.83
2018-09-06T05:21:00.284Z,56131.35
2018-09-06T05:23:29.482Z,56114.90
2018-09-06T05:25:58.630Z,56128.27
2018-09-06T05:28:27.791Z,56139.57
2018-09-06T05:30:57.008Z,56142.66
2018-09-06T05:33:26.141Z,56123.12
2018-09-06T05:35:55.353Z,56111.81
2018-09-06T05:38:24.488Z,56142.66
2018-09-06T05:40:53.611Z,56140.61
2018-09-06T05:43:22.745Z,56151.91
2018-09-06T05:45:51.944Z,56134.43
2018-09-06T05:48:21.115Z,56120.04
2018-09-06T05:50:50.216Z,56146.77
2018-09-06T05:53:19.404Z,56139.57
2018-09-06T05:55:48.541Z,56105.64
2018-09-06T05:58:17.659Z,56098.45
2018-09-06T06:00:48.163Z,56119.01
2018-09-06T06:03:17.346Z,56113.87
2018-09-06T06:05:46.493Z,56123.12
2018-09-06T06:08:32.929Z,56084.05
2018-09-06T06:11:02.088Z,56090.22
2018-09-06T06:13:31.213Z,56068.62
2018-09-06T06:16:00.466Z,56096.39
2018-09-06T06:18:29.549Z,56082.00
2018-09-06T06:20:58.737Z,56087.14
2018-09-06T06:23:27.926Z,56095.36
2018-09-06T06:25:57.096Z,56079.94
2018-09-06T06:28:26.405Z,56123.12
2018-09-06T06:30:55.579Z,56075.82
2018-09-06T06:33:24.774Z,56092.28
2018-09-06T06:35:53.914Z,56075.82
2018-09-06T06:38:23.020Z,56079.94
2018-09-06T06:40:52.201Z,56085.08
2018-09-06T06:43:21.409Z,56091.25
2018-09-06T06:45:50.602Z,56087.14
2018-09-06T06:48:19.760Z,56088.16
2018-09-06T06:50:48.934Z,56072.74
2018-09-06T06:53:18.145Z,56067.60
2018-09-06T06:55:47.350Z,56071.71
2018-09-06T06:58:16.516Z,56064.51
2018-09-06T07:00:45.673Z,56058.34
2018-09-06T07:03:15.359Z,56056.29
2018-09-06T07:05:44.696Z,56096.39
2018-09-06T07:08:13.797Z,56048.06
2018-09-06T07:10:42.982Z,56065.54
2018-09-06T07:13:12.518Z,56057.32
2018-09-06T07:15:41.629Z,56060.40
2018-09-06T07:18:10.830Z,56038.81
2018-09-06T07:20:39.970Z,56042.92
2018-09-06T07:23:09.154Z,56028.52
2018-09-06T07:25:38.376Z,56030.58
2018-09-06T07:28:07.578Z,56034.70
2018-09-06T07:30:36.928Z,56073.77
2018-09-06T07:33:06.103Z,56057.32
2018-09-06T07:35:35.328Z,56035.72
2018-09-06T07:38:04.685Z,56069.65
2018-09-06T07:40:33.820Z,56040.86
2018-09-06T07:43:03.992Z,56026.47
2018-09-06T07:45:33.168Z,56007.96
2018-09-06T07:48:02.356Z,55994.59
2018-09-06T07:50:31.657Z,56014.13
2018-09-06T07:53:00.878Z,56003.85
2018-09-06T07:55:30.003Z,56024.41
2018-09-06T07:57:59.160Z,56013.10
2018-09-06T08:00:28.321Z,56003.85
2018-09-06T08:02:57.580Z,56005.90
2018-09-06T08:05:26.750Z,56008.99
2018-09-06T08:07:55.904Z,56003.85
2018-09-06T08:10:25.092Z,55997.68
2018-09-06T08:12:54.188Z,56013.10
2018-09-06T08:15:23.301Z,56015.16
2018-09-06T08:17:52.489Z,56001.79
2018-09-06T08:20:21.646Z,55999.73
2018-09-06T08:22:50.809Z,56034.70
2018-09-06T08:25:19.947Z,56022.36
2018-09-06T08:27:49.142Z,55971.97
2018-09-06T08:30:18.346Z,56002.82
2018-09-06T08:32:47.477Z,55987.40
2018-09-06T08:35:16.623Z,55989.45
2018-09-06T08:37:45.818Z,55985.34
2018-09-06T08:40:14.960Z,55997.68
2018-09-06T08:42:44.150Z,55990.48
2018-09-06T08:45:13.505Z,55992.54
2018-09-06T08:47:42.752Z,55975.06
2018-09-06T08:50:11.916Z,55974.03
2018-09-06T08:52:41.103Z,55955.52
2018-09-06T08:55:10.386Z,55963.75
2018-09-06T08:57:39.517Z,55973.00
2018-09-06T09:00:08.663Z,55958.61
2018-09-06T09:02:37.783Z,55954.49
2018-09-06T09:05:07.057Z,55983.28
2018-09-06T09:07:36.309Z,55967.86
2018-09-06T09:10:05.902Z,55958.61
2018-09-06T09:12:35.142Z,55964.78
2018-09-06T09:15:04.232Z,55938.04
2018-09-06T09:17:33.375Z,55911.31
2018-09-06T09:20:02.535Z,55868.12
2018-09-06T09:22:31.862Z,55837.28
2018-09-06T09:25:01.021Z,55828.02
2018-09-06T09:27:30.213Z,55818.77
2018-09-06T09:29:59.332Z,55780.73
2018-09-06T09:32:28.500Z,55815.69
2018-09-06T09:34:57.797Z,55775.59
2018-09-06T09:37:26.979Z,55819.80
2018-09-06T09:39:56.141Z,55800.27
2018-09-06T09:42:25.297Z,55796.15
2018-09-06T09:44:54.436Z,55804.38
2018-09-06T09:49:52.344Z,55819.80
2018-09-06T09:52:23.036Z,55806.43
2018-09-06T09:54:52.344Z,55839.34
2018-09-06T09:57:21.471Z,55806.43
2018-09-06T09:59:50.571Z,55818.77
2018-09-06T10:02:25.077Z,55799.24
2018-09-06T10:05:00.385Z,55843.45
2018-09-06T10:07:34.998Z,55842.42
2018-09-06T10:10:04.171Z,55830.08
2018-09-06T10:12:33.275Z,55831.11
2018-09-06T10:15:02.456Z,55830.08
2018-09-06T10:17:31.641Z,55831.11
2018-09-06T10:20:00.763Z,55845.50
2018-09-06T10:22:29.913Z,55820.83
2018-09-06T10:24:59.169Z,55833.17
2018-09-06T10:27:28.332Z,55839.34
2018-09-06T10:29:57.498Z,55870.18
2018-09-06T10:32:26.691Z,55849.62
2018-09-06T10:34:55.900Z,55868.12
2018-09-06T10:37:25.439Z,55860.93
2018-09-06T10:39:54.675Z,55857.84
2018-09-06T10:42:23.753Z,55864.01
2018-09-06T10:44:52.942Z,55906.17
2018-09-06T10:47:22.150Z,55880.46
2018-09-06T10:49:51.356Z,55885.61
2018-09-06T10:52:20.528Z,55900.00
2018-09-06T10:54:49.678Z,55904.11
2018-09-06T10:57:18.840Z,55926.73
2018-09-06T10:59:48.023Z,55874.29
2018-09-06T11:02:17.189Z,55882.52
2018-09-06T11:04:46.307Z,55897.94
2018-09-06T11:07:15.534Z,55888.69
2018-09-06T11:09:44.731Z,55903.08
2018-09-06T11:12:13.886Z,55926.73
2018-09-06T11:14:43.038Z,55888.69
2018-09-06T11:17:12.231Z,55915.42
2018-09-06T11:19:41.376Z,55937.01
2018-09-06T11:22:10.863Z,55920.56
2018-09-06T11:24:39.857Z,55942.16
2018-09-06T11:27:08.968Z,55937.01
2018-09-06T11:29:38.124Z,55956.55
2018-09-06T11:32:07.767Z,55948.32
2018-09-06T11:34:36.951Z,55948.32
2018-09-06T11:37:06.104Z,55956.55
2018-09-06T11:39:35.244Z,55952.44
2018-09-06T11:42:04.388Z,55933.93
2018-09-06T11:44:33.515Z,55938.04
2018-09-06T11:47:02.841Z,55928.79
2018-09-06T11:49:32.076Z,55915.42
2018-09-06T11:52:01.218Z,55962.72
2018-09-06T11:54:30.424Z,55937.01
2018-09-06T11:56:59.590Z,55925.70
2018-09-06T11:59:28.761Z,55918.50
2018-09-06T12:01:57.997Z,55925.70
2018-09-06T12:04:27.098Z,55956.55
2018-09-06T12:06:56.194Z,55914.39
2018-09-06T12:09:25.455Z,55917.48
2018-09-06T12:11:54.586Z,55952.44
2018-09-06T12:14:23.788Z,55933.93
2018-09-06T12:16:52.966Z,55926.73
2018-09-06T12:19:22.213Z,55952.44
2018-09-06T12:21:51.421Z,55949.35
2018-09-06T12:24:20.739Z,55927.76
2018-09-06T12:26:49.836Z,55942.16
2018-09-06T12:29:18.988Z,55927.76
2018-09-06T12:31:48.166Z,55921.59
2018-09-06T12:34:17.335Z,55901.03
2018-09-06T12:36:46.521Z,55919.54
2018-09-06T12:39:15.668Z,55910.28
2018-09-06T12:41:44.841Z,55916.45
2018-09-06T12:44:13.974Z,55893.83
2018-09-06T12:46:43.120Z,55918.50
2018-09-06T12:49:12.312Z,55947.30
2018-09-06T12:51:41.480Z,55945.24
2018-09-06T12:54:10.607Z,55917.48
2018-09-06T12:56:39.757Z,55918.50
2018-09-06T12:59:09.068Z,55884.57
2018-09-06T13:01:38.216Z,55886.63
2018-09-06T13:04:07.520Z,55877.38
2018-09-06T13:06:36.730Z,55893.83
2018-09-06T13:09:07.499Z,55876.35
2018-09-06T13:11:37.226Z,55876.35
2018-09-06T13:14:06.479Z,55861.95
2018-09-06T13:16:35.810Z,55869.15
2018-09-06T13:19:05.120Z,55866.07
2018-09-06T13:21:34.451Z,55858.87
2018-09-06T13:24:03.706Z,55852.70
2018-09-06T13:26:32.828Z,55823.91
2018-09-06T13:29:01.947Z,55853.73
2018-09-06T13:31:31.104Z,55850.64
2018-09-06T13:34:00.306Z,55865.04
2018-09-06T13:36:29.392Z,55874.29
2018-09-06T13:38:58.596Z,55874.29
2018-09-06T13:41:27.797Z,55876.35
2018-09-06T13:43:56.928Z,55882.52
2018-09-06T13:46:26.120Z,55880.46
2018-09-06T13:48:55.219Z,55885.61
2018-09-06T13:51:24.400Z,55877.38
2018-09-06T13:53:53.518Z,55889.72
2018-09-06T13:56:22.713Z,55889.72
2018-09-06T13:58:51.862Z,55890.75
2018-09-06T14:01:21.033Z,55880.46
2018-09-06T14:03:50.251Z,55898.97
2018-09-06T14:06:19.373Z,55850.64
2018-09-06T14:08:51.508Z,55873.27
2018-09-06T14:11:20.727Z,55873.27
2018-09-06T14:13:49.907Z,55890.75
2018-09-06T14:16:19.072Z,55906.17
2018-09-06T14:18:48.241Z,55904.11
2018-09-06T14:21:17.529Z,55906.17
2018-09-06T14:23:46.709Z,55901.03
2018-09-06T14:26:15.870Z,55897.94
2018-09-06T14:28:45.007Z,55919.54
2018-09-06T14:31:15.951Z,55896.91
2018-09-06T14:33:45.102Z,55892.80
2018-09-06T14:36:14.279Z,55894.86
2018-09-06T14:38:44.082Z,55910.28
2018-09-06T14:41:13.175Z,55903.08
2018-09-06T14:43:42.311Z,55935.98
2018-09-06T14:46:11.426Z,55905.14
2018-09-06T14:48:40.636Z,55929.82
2018-09-06T14:51:09.742Z,55929.82
2018-09-06T14:53:38.903Z,55914.39
2018-09-06T14:56:08.690Z,55921.59
2018-09-06T14:58:37.922Z,55927.76
2018-09-06T15:01:07.408Z,55943.18
2018-09-06T15:03:36.579Z,55930.84
2018-09-06T15:06:05.785Z,55948.32
2018-09-06T15:08:34.963Z,55948.32
2018-09-06T15:11:04.139Z,55917.48
2018-09-06T15:13:34.879Z,55954.49
2018-09-06T15:16:04.158Z,55922.62
2018-09-06T15:18:33.411Z,55913.36
2018-09-06T15:21:02.591Z,55931.87
2018-09-06T15:23:31.799Z,55953.46
2018-09-06T15:26:01.038Z,55966.83
2018-09-06T15:28:30.197Z,55942.16
2018-09-06T15:30:59.396Z,55928.79
2018-09-06T15:33:28.592Z,55948.32
2018-09-06T15:35:57.762Z,55925.70
2018-09-06T15:38:27.165Z,55948.32
2018-09-06T15:40:56.749Z,55927.76
2018-09-06T15:43:26.026Z,55952.44
2018-09-06T15:45:57.210Z,55951.41
2018-09-06T15:48:26.542Z,55933.93
2018-09-06T15:50:55.912Z,55962.72
2018-09-06T15:53:25.097Z,55971.97
2018-09-06T15:55:54.303Z,55984.31
2018-09-06T15:58:23.619Z,55950.38
2018-09-06T16:00:52.776Z,55915.42
2018-09-06T16:03:22.032Z,55975.06
2018-09-06T16:05:51.284Z,55950.38
2018-09-06T16:08:20.559Z,55933.93
2018-09-06T16:10:50.922Z,55946.27
2018-09-06T16:13:20.251Z,55931.87
2018-09-06T16:15:49.410Z,55937.01
2018-09-06T16:18:18.531Z,55960.66
2018-09-06T16:20:47.672Z,55948.32
2018-09-06T16:23:16.953Z,55924.68
2018-09-06T16:25:47.855Z,55962.72
2018-09-06T16:28:17.093Z,55966.83
2018-09-06T16:30:46.243Z,55979.17
2018-09-06T16:33:15.397Z,55956.55
2018-09-06T16:35:44.568Z,55984.31
2018-09-06T16:38:13.701Z,55973.00
2018-09-06T16:40:42.852Z,55995.62
2018-09-06T16:43:12.244Z,55942.16
2018-09-06T16:45:41.555Z,55978.14
2018-09-06T16:48:10.812Z,55984.31
2018-09-06T16:50:40.043Z,55986.37
2018-09-06T16:53:09.201Z,55960.66
2018-09-06T16:55:40.209Z,55950.38
2018-09-06T16:58:09.332Z,55981.23
2018-09-06T17:00:38.568Z,55968.89
2018-09-06T17:03:07.745Z,55964.78
2018-09-06T17:05:36.953Z,55966.83
2018-09-06T17:08:06.118Z,55985.34
2018-09-06T17:10:35.296Z,56001.79
2018-09-06T17:13:04.532Z,56010.02
2018-09-06T17:15:33.706Z,55978.14
2018-09-06T17:18:02.816Z,55977.11
2018-09-06T17:20:32.075Z,55970.95
2018-09-06T17:23:01.270Z,55985.34
2018-09-06T17:25:30.429Z,55983.28
2018-09-06T17:27:59.630Z,56012.07
2018-09-06T17:30:28.781Z,55993.57
2018-09-06T17:33:01.060Z,55974.03
2018-09-06T17:35:30.150Z,55976.09
2018-09-06T17:37:59.359Z,55969.92
2018-09-06T17:40:28.516Z,55974.03
2018-09-06T17:42:58.802Z,55962.72
2018-09-06T17:45:27.994Z,55996.65
2018-09-06T17:47:57.196Z,55993.57
2018-09-06T17:50:26.338Z,55992.54
2018-09-06T17:52:55.485Z,55981.23
2018-09-06T17:55:24.623Z,55974.03
2018-09-06T17:57:53.808Z,55985.34
2018-09-06T18:00:22.940Z,55985.34
2018-09-06T18:02:52.075Z,56002.82
2018-09-06T18:05:22.484Z,55997.68
2018-09-06T18:07:51.594Z,56003.85
2018-09-06T18:10:20.766Z,55986.37
2018-09-06T18:12:49.931Z,55999.73
2018-09-06T18:15:19.031Z,55987.40
2018-09-06T18:17:48.301Z,55973.00
2018-09-06T18:20:17.274Z,55957.58
2018-09-06T18:22:46.437Z,55973.00
2018-09-06T18:25:15.585Z,55962.72
2018-09-06T18:27:44.727Z,55991.51
2018-09-06T18:30:13.990Z,55960.66
2018-09-06T18:32:43.173Z,55963.75
2018-09-06T18:35:12.409Z,55957.58
2018-09-06T18:37:41.663Z,55958.61
2018-09-06T18:40:10.813Z,55982.25
2018-09-06T18:42:39.971Z,55943.18
2018-09-06T18:45:09.290Z,55951.41
2018-09-06T18:47:38.606Z,55955.52
2018-09-06T18:50:07.886Z,55956.55
2018-09-06T18:52:37.030Z,55971.97
2018-09-06T18:55:06.242Z,55985.34
2018-09-06T18:57:35.401Z,55964.78
2018-09-06T19:00:04.570Z,55970.95
2018-09-06T19:02:33.769Z,55977.11
2018-09-06T19:05:03.035Z,55961.69
2018-09-06T19:07:32.296Z,55969.92
2018-09-06T19:10:01.567Z,55985.34
2018-09-06T19:12:30.799Z,55977.11
2018-09-06T19:14:59.966Z,55948.32
2018-09-06T19:17:35.847Z,55969.92
2018-09-06T19:20:05.426Z,55975.06
2018-09-06T19:22:34.533Z,55978.14
2018-09-06T19:25:03.717Z,55964.78
2018-09-06T19:27:32.889Z,56008.99
2018-09-06T19:30:01.977Z,55985.34
2018-09-06T19:32:31.182Z,55991.51
2018-09-06T19:35:00.435Z,55965.80
2018-09-06T19:37:29.674Z,55969.92
2018-09-06T19:39:58.907Z,56000.76
2018-09-06T19:42:28.031Z,55995.62
2018-09-06T19:44:57.249Z,55976.09
2018-09-06T19:47:27.399Z,55994.59
2018-09-06T19:49:56.613Z,55973.00
2018-09-06T19:52:25.886Z,55962.72
2018-09-06T19:54:55.015Z,56001.79
2018-09-06T19:57:24.121Z,55959.63
2018-09-06T19:59:53.324Z,55968.89
2018-09-06T20:02:22.913Z,55983.28
2018-09-06T20:04:52.078Z,55971.97
2018-09-06T20:07:21.239Z,56006.93
2018-09-06T20:09:50.451Z,55984.31
2018-09-06T20:12:19.645Z,55985.34
2018-09-06T20:14:48.977Z,55981.23
2018-09-06T20:17:18.160Z,56000.76
2018-09-06T20:19:47.276Z,55965.80
2018-09-06T20:22:16.877Z,55973.00
2018-09-06T20:24:46.181Z,55989.45
2018-09-06T20:27:15.738Z,56019.27
2018-09-06T20:29:45.077Z,55991.51
2018-09-06T20:32:14.364Z,56011.05
2018-09-06T20:34:43.770Z,56029.55
2018-09-06T20:37:12.998Z,55997.68
2018-09-06T20:39:42.190Z,55993.57
2018-09-06T20:42:11.351Z,56010.02
2018-09-06T20:44:40.542Z,56012.07
2018-09-06T20:47:09.990Z,56025.44
2018-09-06T20:49:39.177Z,55987.40
2018-09-06T20:52:08.380Z,55996.65
2018-09-06T20:54:37.534Z,56025.44
2018-09-06T20:57:06.741Z,56024.41
2018-09-06T20:59:36.013Z,56005.90
2018-09-06T21:02:10.609Z,56027.50
2018-09-06T21:04:40.739Z,56027.50
2018-09-06T21:07:09.972Z,56014.13
2018-09-06T21:09:39.162Z,56012.07
2018-09-06T21:12:08.434Z,56011.05
2018-09-06T21:14:37.675Z,56021.33
2018-09-06T21:17:06.865Z,56022.36
2018-09-06T21:19:38.329Z,56036.75
2018-09-06T21:22:07.532Z,56021.33
2018-09-06T21:24:36.827Z,56069.65
2018-09-06T21:27:06.337Z,56062.46
2018-09-06T21:29:35.558Z,56033.67
2018-09-06T21:32:05.222Z,56024.41
2018-09-06T21:34:34.969Z,56053.20
2018-09-06T21:37:04.254Z,56030.58
2018-09-06T21:39:33.425Z,56050.12
2018-09-06T21:42:02.624Z,56032.64
2018-09-06T21:44:31.889Z,56038.81
2018-09-06T21:47:01.044Z,56056.29
2018-09-06T21:49:30.329Z,56034.70
2018-09-06T21:51:59.485Z,56071.71
2018-09-06T21:54:28.682Z,56048.06
2018-09-06T21:56:57.876Z,56056.29
2018-09-06T21:59:27.063Z,56039.84
2018-09-06T22:01:56.268Z,56014.13
2018-09-06T22:04:25.478Z,56042.92
2018-09-06T22:06:54.690Z,56065.54
2018-09-06T22:09:23.932Z,56036.75
2018-09-06T22:11:53.200Z,56034.70
2018-09-06T22:14:22.376Z,56047.03
2018-09-06T22:16:51.554Z,56028.52
2018-09-06T22:19:20.685Z,56059.37
2018-09-06T22:21:51.383Z,56050.12
2018-09-06T22:24:20.556Z,56051.14
2018-09-06T22:26:49.758Z,56061.43
2018-09-06T22:29:18.999Z,56033.67
2018-09-06T22:31:48.219Z,56050.12
2018-09-06T22:34:17.434Z,56043.95
2018-09-06T22:36:46.623Z,56057.32
2018-09-06T22:39:15.969Z,56042.92
2018-09-06T22:41:45.218Z,56036.75
2018-09-06T22:44:17.358Z,56058.34
2018-09-06T22:46:46.515Z,56057.32
2018-09-06T22:49:15.700Z,56038.81
2018-09-06T22:51:44.892Z,56077.88
2018-09-06T22:54:14.106Z,56057.32
2018-09-06T22:56:43.265Z,56051.14
2018-09-06T22:59:12.465Z,56048.06
2018-09-06T23:01:41.668Z,56049.09
2018-09-06T23:04:10.860Z,56038.81
2018-09-06T23:06:40.032Z,56053.20
2018-09-06T23:09:09.570Z,56084.05
2018-09-06T23:11:38.787Z,56064.51
2018-09-06T23:14:08.052Z,56039.84
2018-09-06T23:16:37.228Z,56055.26
2018-09-06T23:19:06.561Z,56050.12
2018-09-06T23:21:35.721Z,56042.92
2018-09-06T23:24:04.857Z,56065.54
2018-09-06T23:26:34.125Z,56049.09
2018-09-06T23:29:03.454Z,56055.26
2018-09-06T23:31:32.636Z,56027.50
2018-09-06T23:34:01.774Z,56067.60
2018-09-06T23:36:30.958Z,56092.28
2018-09-06T23:39:00.134Z,56041.89
2018-09-06T23:41:32.359Z,56042.92
2018-09-06T23:44:01.542Z,56036.75
2018-09-06T23:46:30.715Z,56087.14
2018-09-06T23:48:59.971Z,56082.00
2018-09-06T23:51:29.226Z,56096.39
2018-09-06T23:53:58.372Z,56095.36
2018-09-06T23:56:27.544Z,56079.94
2018-09-06T23:58:56.749Z,56049.09
